Terminal Aerodrome Forecast
Issued by NWS

Home | Current Version | Previous Version | Text Only | Print | Product List | Glossary On
Versions: 1 2 3 4 5 6 7 8 9 10 11 12 13 14 15 16 17
000
FTPA31 PHFO 260537
TAFHKO
TAF
PHKO 260537Z 2606/2706 21007KT P6SM BKN050
     FM260900 08005KT P6SM SCT050
     FM262000 20010KT P6SM SCT050=

USA.gov is the U.S. government's official web portal to all federal, state and local government web resources and services.